Time;durP1;ratioP1;P1;durP2;ratioP2;P2;SDS_P1;SDS_P2;PMS_P1;PMS_P2;Temp;Humidity;BMP_temperature;BMP_pressure;BME280_temperature;BME280_humidity;BME280_pressure;Samples;Min_cycle;Max_cycle;Signal;HPM_P1;HPM_P2
2023/07/24 00:00:09;;;;;;;6.05;3.10;;;16.70;99.90;;;16.13;100.00;100387.34;3980136;29;20039;-74
2023/07/24 00:02:10;;;;;;;6.90;3.88;;;16.70;99.90;;;16.15;100.00;100403.97;3965530;30;20072;-73
2023/07/24 00:04:10;;;;;;;6.93;3.38;;;16.70;99.90;;;16.14;100.00;100397.00;3996383;29;20483;-73
2023/07/24 00:06:11;;;;;;;9.50;3.90;;;16.70;99.90;;;16.04;100.00;100373.41;3980152;29;20031;-73
2023/07/24 00:08:12;;;;;;;10.20;3.53;;;16.70;99.90;;;16.07;100.00;100382.03;3995273;29;20070;-73
2023/07/24 00:10:13;;;;;;;8.23;3.97;;;16.70;99.90;;;16.09;100.00;100380.81;3979905;29;20502;-73
2023/07/24 00:12:14;;;;;;;7.35;3.85;;;16.70;99.90;;;16.00;100.00;100377.50;3985151;29;20062;-73
2023/07/24 00:14:18;;;;;;;5.80;3.05;;;16.70;99.90;;;16.00;100.00;100379.34;3993808;29;20034;-73
2023/07/24 00:16:18;;;;;;;7.07;3.33;;;16.60;99.90;;;15.94;100.00;100374.81;3987655;29;20118;-73
2023/07/24 00:18:19;;;;;;;9.85;3.60;;;16.50;99.90;;;15.86;100.00;100375.00;3996287;29;20069;-73
2023/07/24 00:20:20;;;;;;;5.20;3.20;;;16.50;99.90;;;15.75;100.00;100373.72;3990516;29;20030;-73
2023/07/24 00:22:21;;;;;;;8.20;3.35;;;16.40;99.90;;;15.68;100.00;100378.19;3995900;29;20539;-74
2023/07/24 00:24:22;;;;;;;6.90;2.90;;;16.30;99.90;;;15.61;100.00;100380.00;3996016;29;20030;-74
2023/07/24 00:26:23;;;;;;;7.75;4.13;;;16.30;99.90;;;15.49;100.00;100370.94;3996352;29;20049;-74
2023/07/24 00:28:24;;;;;;;7.07;3.08;;;16.10;99.90;;;15.45;100.00;100370.47;3979988;29;20039;-74
2023/07/24 00:30:25;;;;;;;9.27;3.88;;;16.10;99.90;;;15.36;100.00;100362.84;3994043;29;20510;-73
2023/07/24 00:32:25;;;;;;;6.15;3.75;;;16.00;99.90;;;15.38;100.00;100382.09;3995650;29;20035;-74
2023/07/24 00:34:26;;;;;;;5.97;2.90;;;16.00;99.90;;;15.32;100.00;100381.03;3979647;29;20415;-73
2023/07/24 00:36:27;;;;;;;11.10;3.88;;;15.90;99.90;;;15.28;100.00;100379.78;3979309;29;20046;-74
2023/07/24 00:38:28;;;;;;;6.28;3.30;;;15.90;99.90;;;15.21;100.00;100373.59;3996039;29;20101;-73
2023/07/24 00:40:29;;;;;;;5.72;3.03;;;15.90;99.90;;;15.21;100.00;100376.28;3990115;29;20030;-73
2023/07/24 00:42:30;;;;;;;7.63;3.55;;;15.90;99.90;;;15.19;100.00;100383.63;3987848;29;20030;-73
2023/07/24 00:44:31;;;;;;;11.20;4.10;;;15.80;99.90;;;15.13;100.00;100371.13;3996019;29;20498;-73
2023/07/24 00:46:33;;;;;;;7.63;3.47;;;15.80;99.90;;;15.16;100.00;100377.88;3979545;29;20042;-73
2023/07/24 00:48:34;;;;;;;7.00;3.72;;;15.80;99.90;;;15.10;100.00;100371.50;3979771;29;20031;-73
2023/07/24 00:50:37;;;;;;;9.10;4.13;;;15.80;99.90;;;15.09;100.00;100375.16;3994586;29;20045;-73
2023/07/24 00:52:38;;;;;;;7.80;3.67;;;15.70;99.90;;;14.99;100.00;100363.25;3979492;29;20042;-73
2023/07/24 00:54:40;;;;;;;11.05;3.53;;;15.70;99.90;;;15.07;100.00;100374.53;3988722;29;20339;-73
2023/07/24 00:56:40;;;;;;;8.65;4.32;;;15.70;99.90;;;15.04;100.00;100374.94;3991978;29;20038;-73
2023/07/24 00:58:41;;;;;;;6.45;3.30;;;15.60;99.90;;;14.98;100.00;100370.41;3995711;29;20126;-73
2023/07/24 01:00:43;;;;;;;7.95;3.70;;;15.60;99.90;;;14.97;100.00;100366.09;3979397;29;20569;-73
2023/07/24 01:02:44;;;;;;;7.70;3.42;;;15.60;99.90;;;14.96;100.00;100370.56;3979624;29;20027;-73
2023/07/24 01:04:45;;;;;;;7.68;3.90;;;15.60;99.90;;;14.86;100.00;100350.69;3995678;29;20055;-74
2023/07/24 01:06:46;;;;;;;11.75;4.05;;;15.50;99.90;;;14.76;100.00;100340.41;3979114;29;20049;-73
2023/07/24 01:08:47;;;;;;;11.75;3.60;;;15.50;99.90;;;14.86;100.00;100363.97;3979562;29;20046;-73
2023/07/24 01:10:47;;;;;;;7.07;3.17;;;15.50;99.90;;;14.85;100.00;100354.34;3979617;29;20035;-73
2023/07/24 01:13:00;;;;;;;6.53;3.28;;;15.50;99.90;;;14.85;100.00;100349.03;3995728;29;20037;-73
2023/07/24 01:15:44;;;;;;;5.85;3.38;;;15.50;99.90;;;14.84;100.00;100356.19;3995399;29;20030;-73
2023/07/24 01:17:56;;;;;;;6.47;3.28;;;15.50;99.90;;;14.87;100.00;100352.34;3987348;29;20099;-73
2023/07/24 01:20:02;;;;;;;9.05;3.28;;;15.50;99.90;;;14.91;100.00;100351.75;3980130;29;20064;-74
2023/07/24 01:22:28;;;;;;;6.68;3.45;;;15.50;99.90;;;14.99;100.00;100342.81;3979418;29;20031;-73
2023/07/24 01:25:06;;;;;;;10.98;4.28;;;15.60;99.90;;;15.03;100.00;100345.88;3991701;29;20141;-74
2023/07/24 01:27:07;;;;;;;8.85;3.47;;;15.60;99.90;;;15.08;100.00;100348.81;3995686;29;20051;-73
2023/07/24 01:29:08;;;;;;;7.68;3.30;;;15.70;99.90;;;15.12;100.00;100344.72;3979129;29;20484;-73
2023/07/24 01:31:09;;;;;;;7.30;3.70;;;15.70;99.90;;;15.09;100.00;100332.66;3979112;29;20055;-74
2023/07/24 01:33:10;;;;;;;12.63;3.72;;;15.80;99.90;;;15.17;100.00;100339.66;3995343;29;20030;-73
2023/07/24 01:35:12;;;;;;;8.90;4.05;;;15.80;99.90;;;15.17;100.00;100331.69;3978280;29;20068;-74
2023/07/24 01:37:14;;;;;;;6.03;3.40;;;15.80;99.90;;;15.20;100.00;100333.97;3979035;29;20027;-74
2023/07/24 01:39:17;;;;;;;5.53;3.10;;;15.90;99.90;;;15.23;100.00;100333.56;3978998;29;20031;-74
2023/07/24 01:41:18;;;;;;;8.85;3.95;;;15.90;99.90;;;15.27;100.00;100338.28;3979414;29;20427;-74
2023/07/24 01:43:19;;;;;;;8.18;3.20;;;15.90;99.90;;;15.32;100.00;100333.19;3978520;29;20042;-73
2023/07/24 01:45:20;;;;;;;10.32;3.53;;;15.90;99.90;;;15.32;100.00;100324.44;3991871;29;20137;-73
2023/07/24 01:47:22;;;;;;;5.68;3.05;;;15.90;99.90;;;15.33;100.00;100329.53;3976551;29;20031;-73
2023/07/24 01:49:23;;;;;;;5.20;2.83;;;16.00;99.90;;;15.34;100.00;100328.53;3974448;29;20034;-73
2023/07/24 01:51:23;;;;;;;5.13;3.35;;;16.00;99.90;;;15.34;100.00;100325.88;3992061;29;20075;-73
2023/07/24 01:53:24;;;;;;;8.35;3.20;;;16.00;99.90;;;15.38;100.00;100332.41;3991218;29;20042;-73
2023/07/24 01:55:25;;;;;;;7.38;2.80;;;16.00;99.90;;;15.44;100.00;100333.47;3990918;29;20039;-73
2023/07/24 01:57:26;;;;;;;7.68;2.95;;;16.00;99.90;;;15.43;100.00;100319.38;3978014;29;20031;-73
2023/07/24 01:59:27;;;;;;;5.57;3.15;;;16.00;99.90;;;15.43;100.00;100332.66;3989826;29;20031;-73
2023/07/24 02:01:28;;;;;;;8.88;3.65;;;16.10;99.90;;;15.44;100.00;100333.47;3993202;29;20026;-73
2023/07/24 02:03:28;;;;;;;4.95;3.22;;;16.10;99.90;;;15.45;100.00;100335.09;3980762;29;20031;-73
2023/07/24 02:05:30;;;;;;;7.03;3.28;;;16.10;99.90;;;15.43;100.00;100326.50;3990863;29;20064;-73
2023/07/24 02:07:30;;;;;;;5.07;2.70;;;16.10;99.90;;;15.44;100.00;100330.81;3979858;29;20031;-73
2023/07/24 02:09:31;;;;;;;8.75;3.50;;;16.10;99.90;;;15.44;100.00;100334.28;3975507;29;20524;-73
2023/07/24 02:11:32;;;;;;;5.07;3.42;;;16.10;99.90;;;15.46;100.00;100336.75;3993687;29;20105;-73
2023/07/24 02:13:33;;;;;;;7.50;3.55;;;16.10;99.90;;;15.43;100.00;100324.69;3993780;29;20034;-73
2023/07/24 02:15:34;;;;;;;7.38;3.20;;;16.10;99.90;;;15.50;100.00;100330.06;3990210;29;20057;-73
2023/07/24 02:17:35;;;;;;;7.45;3.28;;;16.10;99.90;;;15.48;100.00;100324.94;3992249;29;20060;-73
2023/07/24 02:19:36;;;;;;;8.82;4.00;;;16.10;99.90;;;15.55;100.00;100340.09;3975646;29;20019;-73
2023/07/24 02:21:37;;;;;;;8.13;3.30;;;16.10;99.90;;;15.49;100.00;100315.94;3993384;29;20038;-73
2023/07/24 02:23:37;;;;;;;5.80;2.90;;;16.20;99.90;;;15.51;100.00;100313.06;3975611;29;20442;-73
2023/07/24 02:25:38;;;;;;;8.48;3.78;;;16.10;99.90;;;15.55;100.00;100321.47;3975649;29;20043;-74
2023/07/24 02:27:39;;;;;;;6.78;3.10;;;16.20;99.90;;;15.55;100.00;100319.66;3992159;29;20034;-73
2023/07/24 02:29:40;;;;;;;6.72;3.30;;;16.20;99.90;;;15.54;100.00;100318.00;3951305;30;20492;-74
2023/07/24 02:31:41;;;;;;;10.18;3.60;;;16.20;99.90;;;15.53;100.00;100318.22;3978164;29;20031;-74
2023/07/24 02:33:42;;;;;;;8.43;3.60;;;16.20;99.90;;;15.57;100.00;100322.91;3991297;29;20411;-74
2023/07/24 02:35:43;;;;;;;7.32;3.40;;;16.20;99.90;;;15.54;100.00;100317.16;3993151;29;20083;-74
2023/07/24 02:37:44;;;;;;;5.93;3.08;;;16.20;99.90;;;15.57;100.00;100322.09;3976791;29;20019;-73
2023/07/24 02:39:45;;;;;;;6.72;3.40;;;16.20;99.90;;;15.55;100.00;100318.81;3989939;29;20027;-73
2023/07/24 02:41:48;;;;;;;8.07;3.45;;;16.20;99.90;;;15.50;100.00;100306.16;3975390;29;20035;-73
2023/07/24 02:43:49;;;;;;;6.55;3.30;;;16.20;99.90;;;15.52;100.00;100313.91;3975704;29;20027;-73
2023/07/24 02:45:50;;;;;;;7.03;3.35;;;16.10;99.90;;;15.45;100.00;100303.19;3993263;29;20091;-73
2023/07/24 02:47:51;;;;;;;5.25;2.95;;;16.10;99.90;;;15.39;100.00;100314.63;3976475;29;20031;-73
2023/07/24 02:49:52;;;;;;;4.60;3.08;;;16.00;99.90;;;15.29;100.00;100316.84;3987982;29;20038;-73
2023/07/24 02:51:52;;;;;;;4.70;3.03;;;15.90;99.90;;;15.17;100.00;100310.44;3989763;29;20026;-73
2023/07/24 02:53:55;;;;;;;6.50;3.40;;;15.90;99.90;;;15.07;100.00;100321.41;3976598;29;20035;-73
2023/07/24 02:55:55;;;;;;;4.90;3.03;;;15.70;99.90;;;15.05;100.00;100330.59;3977031;29;20142;-73
2023/07/24 02:57:56;;;;;;;7.03;3.10;;;15.70;99.90;;;15.00;100.00;100322.38;3992050;29;20030;-73
2023/07/24 02:59:57;;;;;;;9.63;3.72;;;15.60;99.90;;;14.94;100.00;100310.69;3988203;29;20453;-73
2023/07/24 03:01:59;;;;;;;7.28;3.40;;;15.60;99.90;;;15.06;100.00;100316.28;3970514;29;20047;-74
2023/07/24 03:03:59;;;;;;;6.70;3.25;;;15.70;99.90;;;15.09;100.00;100330.00;3975128;29;20057;-73
2023/07/24 03:06:01;;;;;;;6.43;2.80;;;15.70;99.90;;;15.05;100.00;100327.94;3992037;29;20520;-73
2023/07/24 03:08:03;;;;;;;7.07;3.65;;;15.70;99.90;;;15.05;100.00;100339.41;3990258;29;20038;-73
2023/07/24 03:10:04;;;;;;;5.15;2.90;;;15.70;99.90;;;15.01;100.00;100343.44;3990588;29;20096;-73
2023/07/24 03:12:05;;;;;;;6.93;2.80;;;15.60;99.90;;;14.98;100.00;100337.69;3986566;29;20087;-73
2023/07/24 03:14:06;;;;;;;5.50;3.03;;;15.60;99.90;;;14.93;100.00;100331.13;3989668;29;20034;-73
2023/07/24 03:16:07;;;;;;;8.23;3.72;;;15.60;99.90;;;14.84;100.00;100331.47;3989029;29;20396;-74
2023/07/24 03:18:08;;;;;;;7.80;3.03;;;15.50;99.90;;;14.77;100.00;100323.47;3992118;29;20033;-73
2023/07/24 03:20:20;;;;;;;6.25;2.50;;;15.40;99.90;;;14.72;100.00;100322.41;3974837;29;20043;-74
2023/07/24 03:22:21;;;;;;;7.18;3.28;;;15.30;99.90;;;14.66;100.00;100331.97;3974333;29;20042;-74
2023/07/24 03:24:22;;;;;;;10.88;3.15;;;15.30;99.90;;;14.62;100.00;100338.66;3987243;29;20034;-73
2023/07/24 03:26:23;;;;;;;4.15;2.55;;;15.30;99.90;;;14.60;100.00;100334.56;3986405;29;20414;-74
2023/07/24 03:28:24;;;;;;;6.20;3.10;;;15.20;99.90;;;14.57;100.00;100326.97;3991482;29;20026;-73
2023/07/24 03:30:25;;;;;;;9.25;2.78;;;15.20;99.90;;;14.48;100.00;100320.16;3975049;29;20035;-73
2023/07/24 03:32:26;;;;;;;5.63;2.67;;;15.20;99.90;;;14.58;100.00;100334.72;3990280;29;20402;-73
2023/07/24 03:34:27;;;;;;;7.28;3.30;;;15.20;99.90;;;14.56;100.00;100322.66;3988782;29;20039;-73
2023/07/24 03:36:27;;;;;;;9.88;3.67;;;15.20;99.90;;;14.63;100.00;100324.38;3986227;29;20031;-73
2023/07/24 03:38:28;;;;;;;7.90;3.42;;;15.30;99.90;;;14.66;100.00;100325.81;3989387;29;20038;-73
2023/07/24 03:40:29;;;;;;;9.18;3.35;;;15.30;99.90;;;14.69;100.00;100328.94;3991515;29;20560;-73
2023/07/24 03:42:31;;;;;;;8.75;3.70;;;15.30;99.90;;;14.69;100.00;100320.13;3975061;29;20039;-73
2023/07/24 03:44:32;;;;;;;6.38;3.63;;;15.30;99.90;;;14.75;100.00;100327.31;3988390;29;20031;-74
2023/07/24 03:46:33;;;;;;;6.88;3.15;;;15.40;99.90;;;14.75;100.00;100314.06;3974322;29;20038;-73
2023/07/24 03:48:37;;;;;;;7.30;3.28;;;15.40;99.90;;;14.78;100.00;100322.44;3990798;29;20107;-73
2023/07/24 03:50:37;;;;;;;6.70;3.10;;;15.40;99.90;;;14.81;100.00;100326.56;3974924;29;20035;-73
2023/07/24 03:52:38;;;;;;;6.70;3.05;;;15.50;99.90;;;14.85;100.00;100322.47;3974387;29;20027;-74
2023/07/24 03:54:39;;;;;;;10.60;3.90;;;15.50;99.90;;;14.90;100.00;100314.78;3988252;29;20031;-74
2023/07/24 03:56:40;;;;;;;8.88;3.78;;;15.50;99.90;;;14.92;100.00;100318.03;3975583;29;20042;-73
2023/07/24 03:58:41;;;;;;;10.88;3.72;;;15.60;99.90;;;14.87;100.00;100315.16;3994954;29;20392;-74
2023/07/24 04:00:42;;;;;;;9.05;2.97;;;15.50;99.90;;;14.84;100.00;100315.53;3970516;29;20081;-74
2023/07/24 04:02:43;;;;;;;7.78;3.80;;;15.50;99.90;;;14.78;100.00;100313.66;3972857;29;20035;-73
2023/07/24 04:04:43;;;;;;;9.35;3.08;;;15.40;99.90;;;14.71;100.00;100310.13;3991433;29;20027;-73
2023/07/24 04:06:47;;;;;;;10.07;2.92;;;15.40;99.90;;;14.63;100.00;100308.47;3991026;29;20045;-74
2023/07/24 04:08:48;;;;;;;9.82;3.17;;;15.30;99.90;;;14.55;100.00;100307.75;3974530;29;20027;-74
2023/07/24 04:10:49;;;;;;;6.63;2.92;;;15.30;99.90;;;14.57;100.00;100308.41;3990886;29;20049;-73
2023/07/24 04:12:50;;;;;;;11.80;3.50;;;15.20;99.90;;;14.51;100.00;100302.03;3990071;29;20027;-74
2023/07/24 04:14:51;;;;;;;9.05;3.00;;;15.20;99.90;;;14.60;100.00;100316.81;3975996;29;20060;-74
2023/07/24 04:16:51;;;;;;;8.30;3.58;;;15.20;99.90;;;14.61;100.00;100309.63;3992011;29;20031;-73
2023/07/24 04:18:52;;;;;;;7.97;2.67;;;15.30;99.90;;;14.62;100.00;100311.28;3974160;29;20035;-73
2023/07/24 04:20:55;;;;;;;6.65;2.92;;;15.30;99.90;;;14.65;100.00;100317.03;3972733;29;20032;-73
2023/07/24 04:22:56;;;;;;;13.20;3.47;;;15.30;99.90;;;14.62;100.00;100306.81;3988739;29;20050;-74
2023/07/24 04:24:56;;;;;;;5.53;2.90;;;15.30;99.90;;;14.64;100.00;100315.38;3975808;29;20035;-73
2023/07/24 04:26:57;;;;;;;9.55;3.03;;;15.30;99.90;;;14.64;100.00;100309.25;3973679;29;20042;-73
2023/07/24 04:28:58;;;;;;;12.95;3.13;;;15.30;99.90;;;14.63;100.00;100304.97;3989003;29;20503;-73
2023/07/24 04:31:02;;;;;;;6.53;3.58;;;15.30;99.90;;;14.48;100.00;100291.78;3969914;29;20407;-73
2023/07/24 04:33:03;;;;;;;10.07;3.28;;;15.20;99.90;;;14.51;100.00;100309.16;3975853;29;20027;-73
2023/07/24 04:35:04;;;;;;;5.65;2.65;;;15.20;99.90;;;14.48;100.00;100304.25;3974971;29;20084;-73
2023/07/24 04:37:05;;;;;;;7.80;3.63;;;15.10;99.90;;;14.43;100.00;100306.63;3972646;29;20043;-73
2023/07/24 04:39:06;;;;;;;9.07;3.08;;;15.10;99.90;;;14.36;100.00;100299.47;3989998;29;20042;-74
2023/07/24 04:41:07;;;;;;;5.57;2.97;;;15.10;99.90;;;14.32;100.00;100306.16;3960699;30;20081;-74
2023/07/24 04:43:07;;;;;;;9.40;3.28;;;15.00;99.90;;;14.31;100.00;100309.78;3979083;29;20037;-74
2023/07/24 04:45:09;;;;;;;9.38;3.08;;;15.00;99.90;;;14.27;100.00;100308.53;3958211;30;20040;-73
2023/07/24 04:47:10;;;;;;;11.30;3.30;;;14.90;99.90;;;14.33;100.00;100314.94;3990601;29;20091;-73
2023/07/24 04:49:11;;;;;;;7.05;3.47;;;15.00;99.90;;;14.33;100.00;100313.09;3973794;29;20511;-73
2023/07/24 04:51:11;;;;;;;4.97;2.90;;;15.00;99.90;;;14.35;100.00;100313.72;3971876;29;20057;-74
2023/07/24 04:53:12;;;;;;;7.88;3.38;;;15.00;99.90;;;14.36;100.00;100317.22;3973014;29;20050;-73
2023/07/24 04:55:13;;;;;;;7.57;3.25;;;15.00;99.90;;;14.36;100.00;100318.03;3990269;29;20034;-73
2023/07/24 04:57:14;;;;;;;7.82;3.80;;;15.00;99.90;;;14.37;100.00;100309.03;3991267;29;20029;-74
2023/07/24 04:59:15;;;;;;;6.47;3.78;;;15.00;99.90;;;14.37;100.00;100313.53;3987238;29;20027;-73
2023/07/24 05:01:16;;;;;;;9.30;3.85;;;15.00;99.90;;;14.36;100.00;100302.13;3989701;29;20033;-73
2023/07/24 05:03:18;;;;;;;8.95;3.22;;;15.00;99.90;;;14.36;100.00;100306.59;3986933;29;20503;-73
2023/07/24 05:05:18;;;;;;;8.82;3.88;;;15.00;99.90;;;14.37;100.00;100306.38;3974570;29;20626;-73
2023/07/24 05:07:19;;;;;;;8.55;3.63;;;15.00;99.90;;;14.34;100.00;100303.28;3989478;29;20042;-73
2023/07/24 05:09:20;;;;;;;6.13;3.15;;;15.00;99.90;;;14.37;100.00;100313.53;3991016;29;20491;-73
2023/07/24 05:11:21;;;;;;;11.02;3.97;;;15.00;99.90;;;14.34;100.00;100312.06;3972650;29;20035;-73
2023/07/24 05:13:22;;;;;;;8.05;3.38;;;15.00;99.90;;;14.33;100.00;100306.97;3975683;29;20070;-73
2023/07/24 05:15:23;;;;;;;7.47;3.17;;;15.00;99.90;;;14.32;100.00;100306.16;3992480;29;20042;-73
2023/07/24 05:17:24;;;;;;;6.93;3.60;;;14.90;99.90;;;14.33;100.00;100306.97;3992878;29;20092;-73
2023/07/24 05:19:24;;;;;;;4.65;3.03;;;14.90;99.90;;;14.36;100.00;100307.41;3978469;29;20031;-73
2023/07/24 05:21:25;;;;;;;16.42;3.60;;;15.00;99.90;;;14.38;100.00;100302.72;3999534;29;20110;-73
2023/07/24 05:23:26;;;;;;;9.52;3.35;;;15.00;99.90;;;14.48;100.00;100302.41;3984149;29;20081;-73
2023/07/24 05:25:27;;;;;;;5.15;3.53;;;15.10;99.90;;;14.65;100.00;100294.97;4000371;29;20033;-73
2023/07/24 05:27:29;;;;;;;9.07;4.07;;;15.20;99.90;;;14.84;100.00;100303.06;4000361;29;20411;-73
2023/07/24 05:29:30;;;;;;;12.23;4.10;;;15.30;99.90;;;15.03;100.00;100309.53;3969443;29;20500;-73
2023/07/24 05:31:31;;;;;;;7.88;3.58;;;15.50;99.90;;;15.20;100.00;100305.53;3978373;29;20073;-73
2023/07/24 05:33:32;;;;;;;10.38;4.00;;;15.70;99.90;;;15.37;100.00;100293.56;3961122;30;20541;-73
2023/07/24 05:35:33;;;;;;;11.32;3.78;;;15.90;99.90;;;15.49;100.00;100297.34;3965190;30;20035;-73
2023/07/24 05:37:34;;;;;;;7.38;3.30;;;16.00;99.90;;;15.58;100.00;100291.84;3997776;29;20033;-73
2023/07/24 05:39:35;;;;;;;9.88;4.00;;;16.20;99.90;;;15.64;100.00;100301.69;3993030;29;20026;-73
2023/07/24 05:41:35;;;;;;;7.05;2.83;;;16.20;99.90;;;15.64;100.00;100297.19;3982946;29;20069;-73
2023/07/24 05:43:36;;;;;;;8.60;3.17;;;16.30;99.90;;;15.64;100.00;100285.72;3990295;29;20030;-73
2023/07/24 05:45:37;;;;;;;7.72;3.20;;;16.20;99.90;;;15.67;100.00;100295.97;3982464;29;20042;-74
2023/07/24 05:47:38;;;;;;;4.68;3.03;;;16.30;99.90;;;15.60;100.00;100284.47;4000421;29;20379;-73
2023/07/24 05:49:39;;;;;;;6.65;3.40;;;16.30;99.90;;;15.69;100.00;100294.75;4000168;29;20099;-73
2023/07/24 05:51:40;;;;;;;8.82;3.38;;;16.30;99.90;;;15.74;100.00;100296.81;3981557;29;20035;-73
2023/07/24 05:53:40;;;;;;;5.93;3.15;;;16.40;99.90;;;15.80;100.00;100290.69;3972538;29;20097;-73
2023/07/24 05:55:42;;;;;;;9.35;3.80;;;16.50;99.90;;;15.99;100.00;100297.88;4000067;29;20399;-73
2023/07/24 05:57:44;;;;;;;7.75;3.15;;;16.60;99.90;;;16.10;100.00;100294.63;3996614;29;20035;-73
2023/07/24 05:59:45;;;;;;;7.53;2.95;;;16.60;99.90;;;16.17;100.00;100291.97;3979275;29;20027;-74
2023/07/24 06:01:46;;;;;;;11.15;3.38;;;16.80;99.90;;;16.38;100.00;100299.78;3982124;29;20043;-73
2023/07/24 06:03:47;;;;;;;7.85;3.42;;;16.90;99.90;;;16.49;100.00;100292.00;3989720;29;20037;-73
2023/07/24 06:05:53;;;;;;;8.23;3.13;;;17.10;99.90;;;16.51;100.00;100281.16;3987527;29;20065;-73
2023/07/24 06:07:54;;;;;;;9.50;3.80;;;17.20;99.90;;;16.65;100.00;100284.66;3990779;29;20595;-73
2023/07/24 06:09:55;;;;;;;8.05;3.50;;;17.20;99.90;;;16.55;100.00;100279.72;3976130;29;20177;-73
2023/07/24 06:11:56;;;;;;;7.05;2.60;;;17.30;99.90;;;16.62;100.00;100295.72;3974851;29;20039;-73
2023/07/24 06:13:57;;;;;;;7.00;2.90;;;17.20;99.90;;;16.59;100.00;100295.09;3998151;29;20392;-73
2023/07/24 06:15:59;;;;;;;6.20;2.90;;;17.20;99.90;;;16.67;100.00;100295.91;3974046;29;20034;-74
2023/07/24 06:18:00;;;;;;;8.25;2.45;;;17.30;99.90;;;16.68;100.00;100297.53;3989341;29;20023;-73
2023/07/24 06:20:00;;;;;;;8.30;2.80;;;17.30;99.90;;;16.74;100.00;100294.06;3981390;29;20392;-73
2023/07/24 06:22:01;;;;;;;6.57;2.97;;;17.40;99.90;;;16.77;100.00;100288.31;3974892;29;20027;-74
2023/07/24 06:24:02;;;;;;;6.78;2.70;;;17.40;99.90;;;16.78;100.00;100292.63;3980568;29;20029;-74
2023/07/24 06:26:03;;;;;;;5.78;2.67;;;17.40;99.90;;;16.77;100.00;100285.66;3962474;30;20031;-72
2023/07/24 06:28:04;;;;;;;9.63;3.45;;;17.40;99.90;;;16.74;100.00;100288.72;3961563;30;20031;-73
2023/07/24 06:30:07;;;;;;;9.00;3.58;;;17.40;99.90;;;16.69;100.00;100288.53;3955935;30;20040;-73
2023/07/24 06:32:08;;;;;;;6.30;2.63;;;17.40;99.90;;;16.53;100.00;100281.75;3974528;29;20073;-73
2023/07/24 06:34:09;;;;;;;7.00;2.47;;;17.30;99.90;;;16.61;100.00;100294.09;3945874;30;20031;-73
2023/07/24 06:36:10;;;;;;;5.72;2.33;;;17.30;99.90;;;16.68;100.00;100286.91;3974903;29;20031;-73
2023/07/24 06:38:11;;;;;;;4.82;2.53;;;17.30;99.90;;;16.73;100.00;100281.75;3957393;30;20457;-73
2023/07/24 06:40:12;;;;;;;6.72;2.15;;;17.40;99.90;;;16.76;100.00;100284.84;3961312;30;20048;-73
2023/07/24 06:42:13;;;;;;;9.32;3.65;;;17.40;99.90;;;16.82;100.00;100275.19;3975302;29;20027;-73
2023/07/24 06:44:14;;;;;;;8.00;2.97;;;17.40;99.90;;;16.85;100.00;100274.78;3973017;29;20054;-73
2023/07/24 06:46:15;;;;;;;5.43;2.08;;;17.50;99.90;;;16.89;100.00;100279.50;3957591;30;20042;-73
2023/07/24 06:48:16;;;;;;;6.07;2.00;;;17.50;99.90;;;16.99;100.00;100277.19;3977407;29;20396;-73
2023/07/24 06:50:17;;;;;;;6.90;2.95;;;17.60;99.90;;;17.16;100.00;100285.56;3977980;29;20469;-73
2023/07/24 06:52:18;;;;;;;5.68;2.40;;;17.70;99.90;;;17.25;100.00;100281.66;3959671;30;20038;-73
2023/07/24 06:54:19;;;;;;;4.50;2.00;;;17.80;99.90;;;17.17;100.00;100257.91;3974255;29;20059;-73
2023/07/24 06:56:19;;;;;;;7.50;2.03;;;17.90;99.90;;;17.34;100.00;100277.72;3976813;29;20048;-73
2023/07/24 06:58:20;;;;;;;5.07;2.28;;;17.90;99.90;;;17.44;100.00;100278.06;3975043;29;20114;-73
2023/07/24 07:00:21;;;;;;;7.63;2.55;;;18.00;99.90;;;17.42;100.00;100271.31;3960784;30;20023;-73
2023/07/24 07:02:22;;;;;;;5.07;2.97;;;18.00;99.90;;;17.36;100.00;100283.66;3973595;29;20039;-73
2023/07/24 07:04:23;;;;;;;7.90;3.13;;;18.00;99.90;;;17.31;100.00;100282.66;3975568;29;20065;-74
2023/07/24 07:06:24;;;;;;;5.38;3.10;;;17.90;99.90;;;17.27;100.00;100276.09;3959274;30;20080;-73
2023/07/24 07:08:25;;;;;;;9.63;4.03;;;17.90;99.90;;;17.25;100.00;100281.66;3958304;30;20496;-73
2023/07/24 07:10:25;;;;;;;14.10;4.63;;;17.90;99.90;;;17.22;100.00;100287.41;3976313;29;20053;-73
2023/07/24 07:12:26;;;;;;;7.60;4.25;;;17.80;99.90;;;17.21;100.00;100288.41;3974961;29;20073;-74
2023/07/24 07:14:27;;;;;;;6.78;3.50;;;17.90;99.90;;;17.12;100.00;100292.34;3959952;30;20492;-77
2023/07/24 07:16:28;;;;;;;11.77;2.75;;;17.80;99.90;;;17.00;100.00;100291.34;3959637;30;20043;-76
2023/07/24 07:18:29;;;;;;;6.00;2.35;;;17.70;99.90;;;17.05;100.00;100292.34;3978090;29;20015;-70
2023/07/24 07:20:29;;;;;;;4.78;1.95;;;17.70;99.90;;;17.03;100.00;100289.09;3974741;29;20554;-76
2023/07/24 07:22:30;;;;;;;4.82;1.60;;;17.70;99.90;;;17.13;100.00;100286.00;3960853;30;20055;-76
2023/07/24 07:24:31;;;;;;;5.68;2.13;;;17.70;99.90;;;17.32;100.00;100286.97;3958080;30;20039;-76
2023/07/24 07:26:33;;;;;;;6.70;2.42;;;17.80;99.90;;;17.69;100.00;100292.38;3959468;30;20076;-76
2023/07/24 07:28:34;;;;;;;3.03;1.83;;;18.10;99.90;;;17.97;100.00;100292.00;3946345;30;20523;-76
2023/07/24 07:30:35;;;;;;;3.42;1.50;;;18.40;99.90;;;18.37;100.00;100299.75;3977896;29;20031;-76
2023/07/24 07:32:36;;;;;;;3.20;1.65;;;18.70;99.90;;;18.56;100.00;100298.78;3960778;30;20043;-76
2023/07/24 07:34:38;;;;;;;3.40;1.40;;;18.90;99.90;;;18.74;100.00;100305.00;3957506;30;20035;-73
2023/07/24 07:36:39;;;;;;;5.57;1.50;;;19.10;99.90;;;18.91;100.00;100305.25;3962180;29;20042;-75
2023/07/24 07:38:40;;;;;;;5.22;1.40;;;19.20;99.90;;;19.11;100.00;100299.72;3974816;29;20395;-76
2023/07/24 07:40:41;;;;;;;8.75;1.95;;;19.40;99.90;;;19.27;100.00;100304.44;3961261;30;20064;-76
2023/07/24 07:42:42;;;;;;;5.68;1.45;;;19.50;99.90;;;19.41;100.00;100313.19;3977767;29;20026;-76
2023/07/24 07:44:43;;;;;;;7.43;1.70;;;19.70;99.90;;;19.16;100.00;100311.38;3975214;29;20038;-76
2023/07/24 07:46:44;;;;;;;11.25;6.03;;;19.70;99.90;;;19.20;100.00;100315.22;3977626;29;20035;-76
2023/07/24 07:48:46;;;;;;;17.23;4.80;;;19.60;99.90;;;19.23;100.00;100314.75;3973079;29;20046;-76
2023/07/24 07:50:51;;;;;;;8.35;2.70;;;19.60;99.90;;;19.25;100.00;100317.22;3981488;29;20058;-76
2023/07/24 07:52:52;;;;;;;26.42;7.38;;;19.60;99.90;;;19.34;100.00;100315.91;3958975;30;20078;-76
2023/07/24 07:54:53;;;;;;;38.85;9.50;;;19.70;99.90;;;19.27;100.00;100315.16;3974170;29;20031;-76
2023/07/24 07:56:54;;;;;;;21.65;7.13;;;19.70;99.90;;;19.52;100.00;100310.56;3976607;29;20066;-76
2023/07/24 07:58:55;;;;;;;8.05;2.25;;;19.80;99.90;;;19.62;100.00;100310.03;3977354;29;20089;-76
2023/07/24 08:00:56;;;;;;;12.75;3.00;;;20.00;99.90;;;19.74;100.00;100317.06;3971898;29;20023;-76
2023/07/24 08:02:57;;;;;;;6.38;1.52;;;20.10;99.90;;;19.75;100.00;100302.66;3974574;29;20023;-76
2023/07/24 08:04:58;;;;;;;53.65;15.25;;;20.10;99.90;;;19.84;100.00;100316.53;3976243;29;20054;-76
2023/07/24 08:06:59;;;;;;;29.90;9.00;;;20.20;99.90;;;20.03;100.00;100317.31;3946785;30;20067;-76
2023/07/24 08:09:00;;;;;;;10.13;4.13;;;20.40;99.90;;;20.06;100.00;100314.19;3976322;29;20478;-76
2023/07/24 08:11:07;;;;;;;9.10;2.42;;;20.50;99.90;;;20.20;100.00;100315.59;3957822;30;20038;-76
2023/07/24 08:13:08;;;;;;;7.78;1.75;;;20.60;99.90;;;20.28;100.00;100316.13;3963338;30;20035;-76
2023/07/24 08:15:10;;;;;;;8.07;2.00;;;20.70;99.90;;;20.29;100.00;100316.94;3959728;30;20061;-76
2023/07/24 08:17:10;;;;;;;6.20;1.80;;;20.70;99.90;;;20.02;100.00;100316.50;3977571;29;20039;-76
2023/07/24 08:19:11;;;;;;;7.18;1.23;;;20.60;99.90;;;19.79;100.00;100308.38;3981195;29;20030;-76